Time;durP1;ratioP1;P1;durP2;ratioP2;P2;SDS_P1;SDS_P2;PMS_P1;PMS_P2;Temp;Humidity;BMP_temperature;BMP_pressure;BME280_temperature;BME280_humidity;BME280_pressure;Samples;Min_cycle;Max_cycle;Signal;HPM_P1;HPM_P2
2023/11/16 00:01:30;;;;;;;3.07;2.80;;;;;;;9.16;100.00;100817.91;6099812;29;20231;-70
2023/11/16 00:04:52;;;;;;;5.77;3.60;;;;;;;9.13;100.00;100835.19;6103256;29;20232;-71
2023/11/16 00:08:14;;;;;;;1.97;1.87;;;;;;;9.06;100.00;100841.19;6101713;29;20363;-71
2023/11/16 00:11:35;;;;;;;2.47;2.23;;;;;;;9.12;100.00;100819.16;6100491;29;20236;-71
2023/11/16 00:14:58;;;;;;;7.40;2.60;;;;;;;9.15;100.00;100816.22;6102028;29;20243;-70
2023/11/16 00:18:19;;;;;;;6.60;2.83;;;;;;;9.18;100.00;100816.81;6104157;29;20311;-71
2023/11/16 00:21:41;;;;;;;2.97;2.57;;;;;;;9.19;100.00;100799.72;6099509;29;20232;-71
2023/11/16 00:25:05;;;;;;;8.83;3.30;;;;;;;9.21;100.00;100805.81;6095778;29;20226;-69
2023/11/16 00:28:28;;;;;;;3.27;2.70;;;;;;;9.29;100.00;100808.72;6097568;29;20240;-70
2023/11/16 00:31:49;;;;;;;3.57;2.83;;;;;;;9.30;100.00;100804.19;6107435;29;20220;-69
2023/11/16 00:35:10;;;;;;;6.53;2.50;;;;;;;9.31;100.00;100801.34;6099653;29;20240;-70
2023/11/16 00:38:35;;;;;;;2.90;2.70;;;;;;;9.34;100.00;100794.88;6102421;29;20236;-70
2023/11/16 00:41:57;;;;;;;7.07;2.13;;;;;;;9.33;100.00;100796.69;6105021;29;20236;-69
2023/11/16 00:45:19;;;;;;;2.33;2.10;;;;;;;9.31;100.00;100795.13;6100440;29;20601;-70
2023/11/16 00:48:42;;;;;;;4.43;2.57;;;;;;;9.31;100.00;100801.34;6095358;29;20265;-69
2023/11/16 00:52:05;;;;;;;4.20;2.37;;;;;;;9.30;100.00;100785.34;6080210;29;20239;-70
2023/11/16 00:55:27;;;;;;;3.87;2.53;;;;;;;9.29;100.00;100787.19;6090227;29;20236;-69
2023/11/16 00:58:49;;;;;;;3.43;2.47;;;;;;;9.32;100.00;100781.56;6116215;29;20232;-70
2023/11/16 01:02:10;;;;;;;4.10;3.03;;;;;;;9.36;100.00;100784.84;6093096;29;20240;-70
2023/11/16 01:05:30;;;;;;;5.40;2.80;;;;;;;9.35;100.00;100775.03;6102895;29;20231;-70
2023/11/16 01:08:51;;;;;;;2.57;2.03;;;;;;;9.36;100.00;100780.31;6106107;28;20243;-71
2023/11/16 01:12:15;;;;;;;10.17;3.83;;;;;;;9.36;100.00;100782.16;6103315;29;20258;-69
2023/11/16 01:15:38;;;;;;;3.10;2.73;;;;;;;9.36;100.00;100772.25;6103257;29;20236;-70
2023/11/16 01:19:00;;;;;;;2.93;2.67;;;;;;;9.41;100.00;100766.44;6106302;29;20232;-70
2023/11/16 01:22:22;;;;;;;3.23;2.47;;;;;;;9.41;100.00;100782.59;6108445;29;20247;-70
2023/11/16 01:25:51;;;;;;;4.03;3.47;;;;;;;9.40;100.00;100762.06;6103402;29;20227;-70
2023/11/16 01:29:18;;;;;;;3.57;2.60;;;;;;;9.40;100.00;100762.06;6105591;29;20231;-69
2023/11/16 01:32:42;;;;;;;4.27;2.50;;;;;;;9.40;100.00;100745.91;6105517;29;20228;-70
2023/11/16 01:36:04;;;;;;;3.37;3.07;;;;;;;9.41;100.00;100755.69;6113187;29;20247;-70
2023/11/16 01:39:25;;;;;;;3.87;2.30;;;;;;;9.42;100.00;100766.34;6106181;29;20236;-69
2023/11/16 01:42:46;;;;;;;3.70;2.67;;;;;;;9.46;100.00;100756.16;6105643;29;20235;-69
2023/11/16 01:46:09;;;;;;;6.60;3.37;;;;;;;9.47;100.00;100755.19;6104251;29;20691;-69
2023/11/16 01:49:31;;;;;;;2.57;2.37;;;;;;;9.46;100.00;100751.63;6102173;29;20573;-70
2023/11/16 01:53:02;;;;;;;2.57;2.37;;;;;;;9.42;100.00;100749.34;6108453;29;20220;-70
2023/11/16 01:56:30;;;;;;;2.63;1.97;;;;;;;9.35;100.00;100735.56;6102855;29;20251;-69
2023/11/16 01:59:51;;;;;;;7.73;3.13;;;;;;;9.36;100.00;100752.56;6103422;29;20267;-70
2023/11/16 02:03:13;;;;;;;6.80;3.10;;;;;;;9.36;100.00;100742.66;6107610;29;20239;-70
2023/11/16 02:06:34;;;;;;;3.80;2.60;;;;;;;9.26;100.00;100740.88;6116045;29;20472;-71
2023/11/16 02:09:56;;;;;;;2.27;1.87;;;;;;;9.24;100.00;100748.22;6104409;29;20240;-70
2023/11/16 02:13:23;;;;;;;9.20;1.87;;;;;;;9.21;100.00;100735.88;6119172;28;20259;-71
2023/11/16 02:16:45;;;;;;;4.73;2.33;;;;;;;9.06;100.00;100736.31;6103965;29;20314;-70
2023/11/16 02:20:10;;;;;;;4.20;1.70;;;;;;;8.95;100.00;100726.47;6106923;28;20606;-70
2023/11/16 02:23:33;;;;;;;1.93;1.50;;;;;;;8.92;100.00;100744.72;6102518;29;20520;-70
2023/11/16 02:26:54;;;;;;;3.60;1.90;;;;;;;8.96;100.00;100728.19;6102082;29;20241;-70
2023/11/16 02:30:16;;;;;;;5.97;2.63;;;;;;;8.99;100.00;100732.47;6096200;29;20240;-70
2023/11/16 02:33:37;;;;;;;3.63;2.07;;;;;;;9.03;100.00;100720.47;6105386;29;20239;-70
2023/11/16 02:37:00;;;;;;;6.93;2.57;;;;;;;9.10;100.00;100721.63;6095202;29;20633;-70
2023/11/16 02:40:22;;;;;;;4.63;2.07;;;;;;;9.15;100.00;100731.03;6103973;29;20263;-70
2023/11/16 02:43:44;;;;;;;3.03;2.10;;;;;;;9.16;100.00;100710.34;6105739;29;20243;-70
2023/11/16 02:47:06;;;;;;;2.20;1.90;;;;;;;9.21;100.00;100722.44;6099352;29;20273;-70
2023/11/16 02:50:27;;;;;;;3.17;1.80;;;;;;;9.19;100.00;100715.47;6102110;29;20259;-70
2023/11/16 02:53:48;;;;;;;11.00;2.13;;;;;;;9.03;100.00;100729.41;6100710;29;20705;-70
2023/11/16 02:57:10;;;;;;;1.40;1.10;;;;;;;8.92;100.00;100731.28;6091563;29;20638;-70
2023/11/16 03:00:32;;;;;;;2.13;1.47;;;;;;;8.86;100.00;100720.03;6103133;29;20236;-68
2023/11/16 03:03:55;;;;;;;1.70;1.40;;;;;;;8.84;100.00;100734.63;6093246;29;24872;-70
2023/11/16 03:07:18;;;;;;;3.33;1.53;;;;;;;8.76;100.00;100731.72;6105477;28;20893;-70
2023/11/16 03:10:39;;;;;;;3.47;1.77;;;;;;;8.73;100.00;100740.88;6106901;29;20236;-69
2023/11/16 03:14:02;;;;;;;7.93;2.23;;;;;;;8.75;100.00;100740.75;6110807;29;20255;-69
2023/11/16 03:17:26;;;;;;;7.23;2.07;;;;;;;8.70;100.00;100746.50;6104561;29;20243;-70
2023/11/16 03:20:49;;;;;;;3.13;1.30;;;;;;;8.66;100.00;100760.31;6100731;29;20231;-70
2023/11/16 03:24:12;;;;;;;2.07;1.17;;;;;;;8.62;100.00;100748.13;6103794;29;20548;-70
2023/11/16 03:27:33;;;;;;;1.30;1.20;;;;;;;8.61;100.00;100758.03;6099865;29;20244;-69
2023/11/16 03:30:57;;;;;;;1.97;1.30;;;;;;;8.56;100.00;100762.06;6102756;29;20255;-70
2023/11/16 03:34:17;;;;;;;1.40;1.07;;;;;;;8.62;100.00;100770.47;6101559;29;22075;-70
2023/11/16 03:37:39;;;;;;;1.20;1.10;;;;;;;8.54;100.00;100769.38;6103389;29;20614;-70
2023/11/16 03:40:59;;;;;;;2.60;1.70;;;;;;;8.54;100.00;100767.56;6114367;29;20232;-70
2023/11/16 03:44:20;;;;;;;3.30;0.80;;;;;;;8.49;100.00;100775.13;6105743;29;20228;-70
2023/11/16 03:47:43;;;;;;;3.33;1.23;;;;;;;8.51;100.00;100793.84;6099410;29;20251;-70
2023/11/16 03:51:04;;;;;;;1.87;0.80;;;;;;;8.44;100.00;100798.00;6106630;29;20236;-69
2023/11/16 03:54:25;;;;;;;3.83;2.20;;;;;;;8.20;100.00;100811.50;6105289;29;20267;-70
2023/11/16 03:57:46;;;;;;;0.80;0.60;;;;;;;8.17;100.00;100801.03;6101728;29;20239;-71
2023/11/16 04:01:07;;;;;;;0.63;0.50;;;;;;;8.13;100.00;100810.31;6092790;29;20228;-68
2023/11/16 04:04:29;;;;;;;0.57;0.57;;;;;;;8.14;100.00;100819.19;6101707;29;20231;-70
2023/11/16 04:07:52;;;;;;;0.63;0.40;;;;;;;8.14;100.00;100819.19;6103237;29;20241;-69
2023/11/16 04:11:13;;;;;;;0.80;0.80;;;;;;;8.13;100.00;100817.50;6102932;29;20228;-69
2023/11/16 04:14:40;;;;;;;0.60;0.60;;;;;;;8.01;100.00;100854.22;6102405;28;20240;-70
2023/11/16 04:18:03;;;;;;;1.53;0.60;;;;;;;7.95;100.00;100857.38;6097239;29;20232;-71
2023/11/16 04:21:27;;;;;;;0.80;0.80;;;;;;;7.89;100.00;100856.03;6104138;29;20231;-70
2023/11/16 04:24:51;;;;;;;1.30;1.13;;;;;;;7.78;100.00;100849.81;6102593;29;20790;-70
2023/11/16 04:28:13;;;;;;;0.43;0.43;;;;;;;7.74;100.00;100849.19;6092533;29;20252;-69
2023/11/16 04:31:34;;;;;;;0.40;0.40;;;;;;;7.66;100.00;100846.25;6102665;29;20232;-70
2023/11/16 04:34:55;;;;;;;0.47;0.30;;;;;;;7.64;100.00;100845.50;6079899;29;20255;-70
2023/11/16 04:38:20;;;;;;;1.27;0.97;;;;;;;7.55;100.00;100850.72;6098258;29;20330;-69
2023/11/16 04:41:46;;;;;;;0.63;0.53;;;;;;;7.53;100.00;100850.81;6113305;29;21124;-70
2023/11/16 04:45:09;;;;;;;0.50;0.50;;;;;;;7.56;100.00;100868.53;6091248;29;20243;-70
2023/11/16 04:48:30;;;;;;;0.60;0.60;;;;;;;7.49;100.00;100870.81;6104357;29;20628;-70
2023/11/16 04:51:53;;;;;;;0.97;0.90;;;;;;;7.52;100.00;100881.31;6101438;29;20251;-70
2023/11/16 04:55:16;;;;;;;0.40;0.40;;;;;;;7.47;100.00;100910.31;6101213;29;20268;-71
2023/11/16 04:58:37;;;;;;;0.63;0.63;;;;;;;7.38;100.00;100883.34;6103018;29;20359;-70
2023/11/16 05:01:58;;;;;;;0.60;0.57;;;;;;;7.16;100.00;100898.34;6098603;29;20270;-69
2023/11/16 05:05:19;;;;;;;0.50;0.50;;;;;;;7.36;100.00;100896.88;6100171;29;20227;-70
2023/11/16 05:08:41;;;;;;;1.57;0.60;;;;;;;7.36;100.00;100907.59;6101565;29;20236;-70
2023/11/16 05:12:09;;;;;;;0.60;0.60;;;;;;;7.28;100.00;100901.94;6105589;29;20231;-69
2023/11/16 05:15:30;;;;;;;1.13;1.03;;;;;;;7.25;100.00;100897.69;6089448;29;20246;-69
2023/11/16 05:18:51;;;;;;;0.87;0.83;;;;;;;7.28;100.00;100907.28;6105166;29;20817;-69
2023/11/16 05:22:12;;;;;;;0.67;0.60;;;;;;;7.28;100.00;100907.28;6102132;29;20228;-69
2023/11/16 05:25:33;;;;;;;0.50;0.50;;;;;;;6.94;100.00;100919.69;6101069;29;20227;-69
2023/11/16 05:28:55;;;;;;;0.77;0.50;;;;;;;6.88;100.00;100914.75;6101293;28;20263;-69
2023/11/16 05:32:17;;;;;;;0.60;0.60;;;;;;;7.01;100.00;100914.69;6104244;29;20307;-70
2023/11/16 05:35:39;;;;;;;0.80;0.80;;;;;;;6.93;100.00;100917.09;6099321;28;20232;-68
2023/11/16 05:39:00;;;;;;;0.67;0.63;;;;;;;7.03;100.00;100918.97;6103252;28;20244;-70
2023/11/16 05:42:21;;;;;;;0.83;0.80;;;;;;;7.02;100.00;100932.50;6096551;29;20236;-69
2023/11/16 05:45:43;;;;;;;0.50;0.50;;;;;;;6.99;100.00;100935.38;6099402;29;20571;-70
2023/11/16 05:49:06;;;;;;;0.60;0.60;;;;;;;6.99;100.00;100943.44;6094580;29;22033;-69
2023/11/16 05:52:27;;;;;;;0.70;0.70;;;;;;;6.92;100.00;100943.03;6100994;29;20271;-71
2023/11/16 05:55:49;;;;;;;1.23;0.80;;;;;;;6.93;100.00;100951.91;6097921;29;20621;-69
2023/11/16 05:59:10;;;;;;;1.00;0.90;;;;;;;6.92;100.00;100960.94;6098432;29;20650;-70
2023/11/16 06:02:34;;;;;;;4.47;1.67;;;;;;;6.95;100.00;100958.03;6092258;29;20236;-69
2023/11/16 06:05:57;;;;;;;1.00;1.00;;;;;;;6.96;100.00;100965.09;6099876;29;20478;-68
2023/11/16 06:09:18;;;;;;;1.10;1.00;;;;;;;6.97;100.00;100970.34;6108402;29;20243;-69
2023/11/16 06:12:40;;;;;;;1.70;0.90;;;;;;;7.00;100.00;100972.81;6107057;29;20263;-69
2023/11/16 06:16:00;;;;;;;0.90;0.90;;;;;;;6.84;100.00;100974.88;6106860;29;20322;-70
2023/11/16 06:19:23;;;;;;;0.67;0.67;;;;;;;6.80;100.00;100978.72;6108980;29;20231;-70
2023/11/16 06:22:44;;;;;;;0.90;0.80;;;;;;;6.84;100.00;100977.56;6108180;29;20260;-69
2023/11/16 06:26:05;;;;;;;1.63;0.87;;;;;;;6.79;100.00;101000.28;6099855;29;20307;-70
2023/11/16 06:29:26;;;;;;;1.03;1.03;;;;;;;6.80;100.00;100993.97;6097712;29;21015;-71
2023/11/16 06:32:47;;;;;;;0.70;0.70;;;;;;;6.72;100.00;100997.19;6102864;28;21517;-73
2023/11/16 06:36:10;;;;;;;0.60;0.60;;;;;;;6.69;100.00;101012.63;6102326;29;20235;-71
2023/11/16 06:39:31;;;;;;;1.00;1.00;;;;;;;6.56;100.00;101012.63;6097916;29;20353;-73
2023/11/16 06:42:52;;;;;;;1.40;1.30;;;;;;;6.48;100.00;101023.03;6086821;29;21126;-71
2023/11/16 06:46:15;;;;;;;0.80;0.80;;;;;;;6.49;100.00;101045.31;6090622;29;20244;-70
2023/11/16 06:49:37;;;;;;;0.60;0.60;;;;;;;6.43;100.00;101044.75;6101519;29;20240;-70
2023/11/16 06:53:05;;;;;;;0.67;0.67;;;;;;;6.41;100.00;101049.38;6101691;29;20568;-72
2023/11/16 06:56:27;;;;;;;0.60;0.60;;;;;;;6.29;100.00;101049.34;6095199;29;20239;-71
2023/11/16 06:59:47;;;;;;;1.03;0.80;;;;;;;6.33;100.00;101067.78;6101081;29;20634;-71
2023/11/16 07:03:09;;;;;;;0.70;0.67;;;;;;;6.38;100.00;101062.94;6097281;29;20244;-71
2023/11/16 07:06:30;;;;;;;4.43;2.30;;;;;;;6.41;100.00;101057.41;6103630;29;20236;-71
2023/11/16 07:09:53;;;;;;;1.13;1.13;;;;;;;6.39;100.00;101070.03;6094543;29;20750;-72
2023/11/16 07:13:14;;;;;;;0.73;0.73;;;;;;;6.37;100.00;101065.75;6102620;29;20244;-70
2023/11/16 07:16:35;;;;;;;0.90;0.90;;;;;;;6.35;100.00;101075.69;6103269;29;20996;-71
2023/11/16 07:19:56;;;;;;;1.33;0.83;;;;;;;6.40;100.00;101071.72;6109213;29;20709;-69
2023/11/16 07:23:19;;;;;;;0.90;0.90;;;;;;;6.41;100.00;101080.63;6110291;28;20236;-69
2023/11/16 07:26:41;;;;;;;0.80;0.80;;;;;;;6.41;100.00;101091.34;6106509;29;20224;-73
2023/11/16 07:30:04;;;;;;;0.70;0.70;;;;;;;6.46;100.00;101091.91;6098073;29;20239;-71
2023/11/16 07:33:25;;;;;;;0.87;0.87;;;;;;;6.40;100.00;101093.16;6101872;29;20259;-69
2023/11/16 07:36:47;;;;;;;1.40;1.03;;;;;;;6.47;100.00;101092.75;6102886;29;20231;-71
2023/11/16 07:40:11;;;;;;;0.60;0.60;;;;;;;6.44;100.00;101088.47;6099754;28;20228;-71
2023/11/16 07:43:34;;;;;;;1.20;1.20;;;;;;;6.55;100.00;101101.97;6102055;29;20231;-70
2023/11/16 07:46:58;;;;;;;1.93;1.33;;;;;;;6.56;100.00;101103.69;6098838;29;20220;-70
2023/11/16 07:50:18;;;;;;;0.67;0.67;;;;;;;6.56;100.00;101110.84;6102500;29;21618;-72
2023/11/16 07:53:42;;;;;;;1.70;1.03;;;;;;;6.65;100.00;101108.41;6090858;29;20231;-74
2023/11/16 07:57:04;;;;;;;0.90;0.90;;;;;;;6.65;100.00;101113.78;6085624;29;20232;-73
2023/11/16 08:00:30;;;;;;;0.90;0.90;;;;;;;6.63;100.00;101106.81;6096672;29;20235;-70
2023/11/16 08:03:55;;;;;;;1.03;0.80;;;;;;;6.65;100.00;101116.47;6101628;29;20237;-69
2023/11/16 08:07:18;;;;;;;1.43;1.20;;;;;;;6.74;100.00;101123.84;6103996;29;20236;-72
2023/11/16 08:10:39;;;;;;;1.17;0.83;;;;;;;6.70;100.00;101124.16;6110358;29;20236;-69
2023/11/16 08:14:00;;;;;;;0.90;0.90;;;;;;;6.68;100.00;101126.94;6121233;28;20243;-71
2023/11/16 08:17:24;;;;;;;1.43;1.10;;;;;;;6.66;100.00;101119.97;6105920;29;20551;-72
2023/11/16 08:20:45;;;;;;;0.93;0.90;;;;;;;6.67;100.00;101119.88;6101369;29;20239;-74
2023/11/16 08:24:08;;;;;;;1.73;1.13;;;;;;;6.80;100.00;101114.53;6110449;29;20237;-72
2023/11/16 08:27:31;;;;;;;1.43;1.33;;;;;;;6.83;100.00;101112.50;6114725;29;20519;-74
2023/11/16 08:30:58;;;;;;;3.70;1.40;;;;;;;6.83;100.00;101112.50;6110898;29;20267;-71
2023/11/16 08:34:20;;;;;;;0.87;0.87;;;;;;;6.99;100.00;101115.81;6107005;29;20585;-74
2023/11/16 08:37:43;;;;;;;1.00;0.93;;;;;;;6.96;100.00;101123.22;6111237;29;20239;-74
2023/11/16 08:41:04;;;;;;;1.40;1.30;;;;;;;7.00;100.00;101122.91;6108115;29;20227;-71
2023/11/16 08:44:25;;;;;;;1.23;1.23;;;;;;;6.98;100.00;101137.38;6102025;29;20274;-70
2023/11/16 08:47:48;;;;;;;0.90;0.90;;;;;;;7.00;100.00;101138.13;6107582;29;20235;-70
2023/11/16 08:51:15;;;;;;;1.00;0.90;;;;;;;6.99;100.00;101131.91;6109222;29;20255;-69
2023/11/16 08:54:36;;;;;;;0.80;0.80;;;;;;;6.99;100.00;101131.03;6110840;29;20533;-70
2023/11/16 08:57:57;;;;;;;1.33;1.23;;;;;;;6.98;100.00;101137.38;6106361;29;22283;-69
2023/11/16 09:01:18;;;;;;;1.33;1.13;;;;;;;6.95;100.00;101142.94;6106528;29;20259;-69
2023/11/16 09:04:39;;;;;;;1.23;1.00;;;;;;;6.94;100.00;101151.94;6110213;28;20240;-70
2023/11/16 09:08:02;;;;;;;1.00;0.90;;;;;;;7.01;100.00;101139.81;6075101;29;20236;-70
2023/11/16 09:11:27;;;;;;;0.93;0.83;;;;;;;7.03;100.00;101143.28;6110498;29;20235;-69
2023/11/16 09:14:48;;;;;;;2.27;1.00;;;;;;;7.18;100.00;101142.19;6108324;29;20232;-70
2023/11/16 09:18:09;;;;;;;1.97;1.40;;;;;;;7.13;100.00;101144.34;6112346;29;20440;-70
2023/11/16 09:21:30;;;;;;;0.93;0.93;;;;;;;7.08;100.00;101143.78;6107633;28;20696;-70
2023/11/16 09:24:55;;;;;;;1.40;1.17;;;;;;;7.04;100.00;101153.03;6112398;29;20243;-70
2023/11/16 09:28:17;;;;;;;1.43;1.33;;;;;;;7.03;100.00;101149.47;6112065;29;20236;-69
2023/11/16 09:31:41;;;;;;;1.13;1.03;;;;;;;6.95;100.00;101150.97;6106102;29;20255;-69
2023/11/16 09:35:03;;;;;;;1.43;1.33;;;;;;;6.88;100.00;101145.19;6112743;29;21059;-70
2023/11/16 09:38:24;;;;;;;0.80;0.80;;;;;;;6.89;100.00;101136.19;6118153;28;20243;-71
2023/11/16 09:41:50;;;;;;;0.73;0.73;;;;;;;7.06;100.00;101137.69;6095813;29;20240;-70
2023/11/16 09:45:11;;;;;;;1.17;1.10;;;;;;;7.18;100.00;101144.84;6118309;29;20263;-68
2023/11/16 09:48:32;;;;;;;1.33;0.80;;;;;;;7.10;100.00;101125.78;6116266;29;20555;-70
2023/11/16 09:51:53;;;;;;;1.07;1.07;;;;;;;7.13;100.00;101130.94;6119062;29;20243;-70
2023/11/16 09:55:17;;;;;;;0.93;0.80;;;;;;;7.26;100.00;101147.84;6114391;28;20243;-72
2023/11/16 09:58:41;;;;;;;0.80;0.80;;;;;;;7.19;100.00;101151.94;6103760;29;20235;-70
2023/11/16 10:02:09;;;;;;;1.03;0.97;;;;;;;7.07;100.00;101144.78;6107482;29;20236;-70
2023/11/16 10:05:34;;;;;;;2.03;0.90;;;;;;;7.23;100.00;101137.38;6108964;29;20228;-70
2023/11/16 10:08:56;;;;;;;1.10;1.00;;;;;;;7.15;100.00;101145.94;6105565;29;20911;-70
2023/11/16 10:12:16;;;;;;;0.90;0.90;;;;;;;7.23;100.00;101148.09;6110940;29;20621;-71
2023/11/16 10:15:40;;;;;;;1.17;1.17;;;;;;;7.32;100.00;101149.25;6108701;29;20228;-70
2023/11/16 10:19:05;;;;;;;0.90;0.90;;;;;;;7.19;100.00;101147.44;6114739;29;20621;-70
2023/11/16 10:22:27;;;;;;;1.07;0.97;;;;;;;6.92;100.00;101144.03;6109542;29;20244;-70
2023/11/16 10:25:48;;;;;;;0.90;0.90;;;;;;;6.97;100.00;101146.34;6116877;29;20244;-70
2023/11/16 10:29:10;;;;;;;2.00;0.93;;;;;;;6.83;100.00;101158.03;6110153;28;20326;-71
2023/11/16 10:32:33;;;;;;;0.93;0.93;;;;;;;6.96;100.00;101161.59;6108164;29;20527;-70
2023/11/16 10:35:56;;;;;;;0.70;0.70;;;;;;;6.93;100.00;101166.28;6117499;29;20239;-71
2023/11/16 10:39:19;;;;;;;0.83;0.83;;;;;;;7.06;100.00;101161.81;6113666;29;20244;-71
2023/11/16 10:42:41;;;;;;;0.67;0.60;;;;;;;7.31;100.00;101150.22;6109402;29;20220;-71
2023/11/16 10:46:03;;;;;;;1.60;1.47;;;;;;;7.41;100.00;101157.50;6100108;29;21837;-70
2023/11/16 10:49:25;;;;;;;0.73;0.73;;;;;;;7.51;100.00;101157.72;6098692;29;20240;-71
2023/11/16 10:52:48;;;;;;;1.73;1.47;;;;;;;7.64;100.00;101164.75;6107917;29;20236;-69
2023/11/16 10:56:11;;;;;;;1.23;1.13;;;;;;;7.81;100.00;101161.72;6104243;29;20240;-69
2023/11/16 10:59:33;;;;;;;1.60;1.50;;;;;;;8.30;100.00;101166.19;6100362;29;20247;-71
2023/11/16 11:02:56;;;;;;;1.00;1.00;;;;;;;9.03;100.00;101156.94;6097828;28;20383;-71
2023/11/16 11:06:20;;;;;;;1.70;1.60;;;;;;;8.32;100.00;101166.94;6105931;29;20259;-71
2023/11/16 11:09:42;;;;;;;1.50;1.37;;;;;;;8.08;100.00;101170.44;6103958;29;20239;-73
2023/11/16 11:13:04;;;;;;;1.60;1.20;;;;;;;7.58;100.00;101165.22;6114870;29;20288;-73
2023/11/16 11:16:27;;;;;;;1.03;1.03;;;;;;;7.44;100.00;101167.16;6125551;29;20231;-74
2023/11/16 11:19:58;;;;;;;0.70;0.70;;;;;;;7.31;100.00;101174.34;6107671;28;20227;-73
2023/11/16 11:23:20;;;;;;;0.70;0.70;;;;;;;7.44;100.00;101169.84;6110171;29;20627;-74
2023/11/16 11:26:45;;;;;;;1.13;0.70;;;;;;;7.72;100.00;101167.75;6111524;29;20363;-72
2023/11/16 11:30:11;;;;;;;0.50;0.50;;;;;;;7.86;100.00;101172.97;6109753;29;20760;-74
2023/11/16 11:33:35;;;;;;;0.73;0.73;;;;;;;8.11;100.00;101171.19;6109683;29;20227;-69
2023/11/16 11:36:56;;;;;;;0.60;0.60;;;;;;;7.80;100.00;101169.88;6109056;28;20621;-70
2023/11/16 11:40:23;;;;;;;0.70;0.70;;;;;;;7.58;100.00;101157.16;6111005;29;20240;-73
2023/11/16 11:43:45;;;;;;;0.80;0.70;;;;;;;7.37;100.00;101169.41;6102531;29;20228;-73
2023/11/16 11:47:08;;;;;;;2.93;0.97;;;;;;;7.43;100.00;101174.34;6107343;29;20228;-71
2023/11/16 11:50:34;;;;;;;1.20;0.90;;;;;;;7.49;100.00;101179.25;6107909;29;21221;-74
2023/11/16 11:53:56;;;;;;;0.70;0.70;;;;;;;7.52;100.00;101178.19;6111675;28;20228;-72
2023/11/16 11:57:19;;;;;;;0.70;0.70;;;;;;;7.46;100.00;101166.09;6108124;28;20267;-73
2023/11/16 12:00:48;;;;;;;1.40;0.80;;;;;;;7.42;100.00;101161.91;6105010;29;20224;-77
2023/11/16 12:04:10;;;;;;;0.60;0.60;;;;;;;7.55;100.00;101154.69;6106280;29;20262;-72
2023/11/16 12:07:31;;;;;;;0.63;0.63;;;;;;;7.63;100.00;101146.97;6108914;29;20239;-71
2023/11/16 12:10:53;;;;;;;0.87;0.87;;;;;;;7.47;100.00;101148.19;6104241;28;20567;-72
2023/11/16 12:14:15;;;;;;;0.50;0.50;;;;;;;7.45;100.00;101145.59;6101939;29;21443;-70
2023/11/16 12:17:38;;;;;;;2.20;0.70;;;;;;;7.68;100.00;101147.47;6111583;29;20634;-69
2023/11/16 12:20:59;;;;;;;0.73;0.73;;;;;;;7.76;100.00;101136.19;6101167;29;20239;-72
2023/11/16 12:24:23;;;;;;;0.60;0.60;;;;;;;7.74;100.00;101138.97;6101716;29;20807;-70
2023/11/16 12:27:47;;;;;;;0.50;0.50;;;;;;;7.61;100.00;101130.13;6111872;29;20590;-70
2023/11/16 12:31:11;;;;;;;0.50;0.50;;;;;;;7.75;100.00;101115.69;6108551;29;20236;-72
2023/11/16 12:34:32;;;;;;;1.90;0.90;;;;;;;7.70;100.00;101113.34;6105708;29;20310;-72
2023/11/16 12:37:53;;;;;;;0.50;0.50;;;;;;;7.95;100.00;101115.06;6110643;29;20536;-71
2023/11/16 12:41:14;;;;;;;0.60;0.60;;;;;;;8.24;100.00;101112.91;6106277;29;21084;-71
2023/11/16 12:44:35;;;;;;;0.43;0.43;;;;;;;7.89;100.00;101112.84;6110705;28;20618;-74
2023/11/16 12:47:58;;;;;;;1.20;0.60;;;;;;;7.83;100.00;101107.94;6107290;29;20239;-73
2023/11/16 12:51:20;;;;;;;0.60;0.60;;;;;;;7.94;100.00;101108.88;6110329;29;20622;-72
2023/11/16 12:54:42;;;;;;;3.60;3.30;;;;;;;7.73;100.00;101102.38;6101259;29;20267;-71
2023/11/16 12:58:05;;;;;;;0.70;0.70;;;;;;;7.84;100.00;101098.91;6103015;29;20326;-72
2023/11/16 13:01:26;;;;;;;0.97;0.70;;;;;;;7.99;100.00;101093.25;6100136;29;20235;-74
2023/11/16 13:04:48;;;;;;;0.53;0.50;;;;;;;8.02;100.00;101097.53;6096712;29;20539;-73
2023/11/16 13:08:09;;;;;;;0.60;0.60;;;;;;;7.96;100.00;101093.50;6104610;29;20239;-71
2023/11/16 13:11:30;;;;;;;0.60;0.60;;;;;;;7.94;100.00;101095.44;6094908;29;20561;-73
2023/11/16 13:14:51;;;;;;;0.53;0.53;;;;;;;7.74;100.00;101084.47;6106042;29;20603;-71
2023/11/16 13:18:12;;;;;;;0.37;0.37;;;;;;;7.77;100.00;101082.41;6108056;29;20561;-72
2023/11/16 13:21:35;;;;;;;0.47;0.47;;;;;;;7.65;100.00;101083.31;6113664;28;20622;-73
2023/11/16 13:24:55;;;;;;;0.70;0.70;;;;;;;7.62;100.00;101071.94;6110630;29;20764;-74
2023/11/16 13:28:16;;;;;;;0.50;0.50;;;;;;;7.61;100.00;101065.72;6120068;28;20266;-71
2023/11/16 13:31:37;;;;;;;0.50;0.50;;;;;;;7.60;100.00;101063.16;6112970;29;20243;-73
2023/11/16 13:34:58;;;;;;;0.70;0.70;;;;;;;7.67;100.00;101057.22;6114646;29;20232;-74
2023/11/16 13:38:22;;;;;;;0.67;0.67;;;;;;;7.58;100.00;101052.53;6111536;28;20917;-73
2023/11/16 13:41:44;;;;;;;0.60;0.60;;;;;;;7.67;100.00;101056.38;6118104;29;20231;-70
2023/11/16 13:45:06;;;;;;;0.40;0.40;;;;;;;7.68;100.00;101045.50;6115763;29;20227;-74
2023/11/16 13:48:29;;;;;;;0.60;0.60;;;;;;;7.65;100.00;101050.25;6118454;29;20235;-73
2023/11/16 13:51:50;;;;;;;1.83;0.67;;;;;;;7.57;100.00;101044.59;6118506;29;20235;-75
2023/11/16 13:55:13;;;;;;;0.40;0.40;;;;;;;7.58;100.00;101047.16;6118955;28;20231;-73
2023/11/16 13:58:35;;;;;;;0.53;0.53;;;;;;;7.51;100.00;101050.44;6115993;28;20957;-72
2023/11/16 14:01:56;;;;;;;0.60;0.60;;;;;;;7.44;100.00;101049.16;6115274;29;20570;-71
2023/11/16 14:05:17;;;;;;;2.00;0.90;;;;;;;7.32;100.00;101058.09;6120107;29;20244;-74
2023/11/16 14:08:43;;;;;;;0.80;0.80;;;;;;;7.37;100.00;101064.81;6115589;29;20313;-71
2023/11/16 14:12:06;;;;;;;0.70;0.70;;;;;;;7.37;100.00;101055.91;6118348;28;20732;-70
2023/11/16 14:15:27;;;;;;;0.30;0.30;;;;;;;7.46;100.00;101053.44;6117810;29;20224;-71
2023/11/16 14:18:48;;;;;;;1.57;0.53;;;;;;;7.45;100.00;101046.34;6112960;29;20227;-71
2023/11/16 14:22:10;;;;;;;0.53;0.50;;;;;;;7.55;100.00;101058.09;6115636;29;20260;-72
2023/11/16 14:25:32;;;;;;;2.37;0.50;;;;;;;7.52;100.00;101049.44;6116245;29;20264;-72
2023/11/16 14:28:55;;;;;;;1.10;0.50;;;;;;;7.43;100.00;101059.00;6118272;28;20598;-73
2023/11/16 14:32:16;;;;;;;0.67;0.67;;;;;;;7.31;100.00;101073.31;6107092;29;20232;-73
2023/11/16 14:35:37;;;;;;;0.40;0.40;;;;;;;7.20;100.00;101068.72;6114829;29;20767;-73
2023/11/16 14:38:57;;;;;;;5.53;3.60;;;;;;;7.20;100.00;101074.09;6111247;29;20323;-71
2023/11/16 14:42:18;;;;;;;1.70;1.07;;;;;;;7.19;100.00;101066.16;6109134;29;20560;-72
2023/11/16 14:45:41;;;;;;;0.63;0.63;;;;;;;7.01;100.00;101075.50;6115450;28;20240;-71
2023/11/16 14:49:03;;;;;;;0.50;0.50;;;;;;;7.19;100.00;101072.38;6110967;29;20741;-69
2023/11/16 14:52:24;;;;;;;0.67;0.67;;;;;;;7.29;100.00;101067.22;6112735;29;20231;-77
2023/11/16 14:55:45;;;;;;;0.93;0.70;;;;;;;7.35;100.00;101071.25;6109561;29;20300;-73
2023/11/16 14:59:08;;;;;;;0.40;0.40;;;;;;;7.30;100.00;101070.75;6118701;28;20247;-73
2023/11/16 15:02:30;;;;;;;0.40;0.40;;;;;;;7.35;100.00;101068.56;6113994;28;20235;-74
2023/11/16 15:05:51;;;;;;;0.50;0.50;;;;;;;7.30;100.00;101068.94;6117501;29;20240;-69
2023/11/16 15:09:14;;;;;;;1.70;0.73;;;;;;;7.25;100.00;101080.00;6113439;29;20232;-72
2023/11/16 15:12:35;;;;;;;0.50;0.50;;;;;;;7.23;100.00;101081.06;6095861;29;20251;-71
2023/11/16 15:15:55;;;;;;;0.97;0.83;;;;;;;7.23;100.00;101068.53;6116764;29;20235;-72
2023/11/16 15:19:23;;;;;;;0.50;0.50;;;;;;;7.18;100.00;101067.97;6116510;28;20319;-71
2023/11/16 15:22:46;;;;;;;0.97;0.60;;;;;;;7.22;100.00;101064.09;6112450;29;20227;-72
2023/11/16 15:26:07;;;;;;;0.60;0.60;;;;;;;7.24;100.00;101061.31;6113619;29;20315;-72
2023/11/16 15:29:31;;;;;;;0.57;0.50;;;;;;;7.16;100.00;101050.28;6112426;28;20236;-72
2023/11/16 15:32:53;;;;;;;1.30;0.50;;;;;;;7.17;100.00;101060.91;6116781;29;20232;-71
2023/11/16 15:36:15;;;;;;;3.30;0.80;;;;;;;7.20;100.00;101059.81;6103422;29;20759;-72
2023/11/16 15:39:35;;;;;;;0.50;0.50;;;;;;;7.12;100.00;101065.75;6112017;29;20243;-72